createdAt,value
2017-10-10T00:00:05.039Z,5.87
2017-10-10T00:02:31.638Z,6.57
2017-10-10T00:04:58.276Z,6.60
2017-10-10T00:07:24.872Z,8.80
2017-10-10T00:09:51.490Z,6.73
2017-10-10T00:12:18.114Z,6.33
2017-10-10T00:14:44.766Z,6.70
2017-10-10T00:17:11.348Z,5.70
2017-10-10T00:19:37.956Z,6.07
2017-10-10T00:22:04.589Z,5.40
2017-10-10T00:24:31.196Z,6.87
2017-10-10T00:26:57.801Z,6.00
2017-10-10T00:29:24.438Z,5.70
2017-10-10T00:31:51.042Z,6.63
2017-10-10T00:34:17.649Z,6.03
2017-10-10T00:36:44.265Z,6.10
2017-10-10T00:39:10.900Z,5.50
2017-10-10T00:41:37.505Z,6.40
2017-10-10T00:44:04.111Z,6.40
2017-10-10T00:46:30.737Z,6.50
2017-10-10T00:48:57.357Z,5.50
2017-10-10T00:51:23.958Z,6.60
2017-10-10T00:53:50.595Z,5.50
2017-10-10T00:56:17.227Z,6.17
2017-10-10T00:58:43.846Z,5.73
2017-10-10T01:01:10.445Z,5.70
2017-10-10T01:03:37.099Z,5.33
2017-10-10T01:06:03.698Z,5.67
2017-10-10T01:08:30.296Z,5.83
2017-10-10T01:10:57.043Z,6.90
2017-10-10T01:13:23.634Z,5.93
2017-10-10T01:15:50.253Z,5.90
2017-10-10T01:18:16.880Z,5.40
2017-10-10T01:20:43.477Z,5.80
2017-10-10T01:23:10.097Z,5.67
2017-10-10T01:25:36.722Z,6.10
2017-10-10T01:28:03.318Z,6.07
2017-10-10T01:33:03.141Z,5.70
2017-10-10T01:35:29.739Z,6.23
2017-10-10T01:37:56.361Z,5.83
2017-10-10T01:40:22.959Z,5.90
2017-10-10T01:42:49.556Z,5.17
2017-10-10T01:45:16.181Z,5.40
2017-10-10T01:47:42.806Z,6.03
2017-10-10T01:50:09.408Z,6.40
2017-10-10T01:52:36.122Z,6.30
2017-10-10T01:55:02.746Z,5.60
2017-10-10T01:57:29.369Z,6.37
2017-10-10T01:59:55.978Z,6.53
2017-10-10T02:02:22.631Z,6.13
2017-10-10T02:04:49.250Z,6.57
2017-10-10T02:07:15.861Z,6.40
2017-10-10T02:09:42.479Z,6.00
2017-10-10T02:12:09.094Z,6.03
2017-10-10T02:14:35.725Z,6.23
2017-10-10T02:17:02.403Z,6.23
2017-10-10T02:19:29.032Z,6.90
2017-10-10T02:21:55.657Z,5.70
2017-10-10T02:24:22.269Z,6.30
2017-10-10T02:26:48.868Z,5.90
2017-10-10T02:29:15.507Z,6.40
2017-10-10T02:31:42.114Z,6.13
2017-10-10T02:34:08.743Z,7.00
2017-10-10T02:36:35.362Z,5.80
2017-10-10T02:39:02.023Z,6.30
2017-10-10T02:41:28.642Z,5.80
2017-10-10T02:43:55.279Z,6.70
2017-10-10T02:46:21.874Z,6.37
2017-10-10T02:48:48.583Z,6.70
2017-10-10T02:51:15.192Z,7.37
2017-10-10T02:53:41.798Z,7.20
2017-10-10T02:56:08.808Z,7.40
2017-10-10T02:58:35.394Z,7.27
2017-10-10T03:01:02.018Z,8.10
2017-10-10T03:03:28.618Z,7.30
2017-10-10T03:05:55.235Z,7.70
2017-10-10T03:08:21.841Z,8.20
2017-10-10T03:10:48.554Z,7.70
2017-10-10T03:13:15.168Z,7.43
2017-10-10T03:15:41.766Z,8.20
2017-10-10T03:18:08.381Z,8.50
2017-10-10T03:20:35.002Z,8.67
2017-10-10T03:23:01.720Z,9.80
2017-10-10T03:25:28.338Z,8.70
2017-10-10T03:27:54.985Z,8.70
2017-10-10T03:30:21.633Z,8.57
2017-10-10T03:32:48.236Z,8.63
2017-10-10T03:35:14.866Z,8.90
2017-10-10T03:37:41.509Z,8.37
2017-10-10T03:40:08.186Z,8.93
2017-10-10T03:42:34.777Z,9.00
2017-10-10T03:45:01.462Z,8.43
2017-10-10T03:47:28.086Z,9.10
2017-10-10T03:49:54.689Z,8.73
2017-10-10T03:52:21.285Z,8.70
2017-10-10T03:54:47.909Z,8.67
2017-10-10T03:57:14.501Z,8.13
2017-10-10T03:59:41.113Z,7.60
2017-10-10T04:02:07.735Z,7.20
2017-10-10T04:04:34.340Z,8.00
2017-10-10T04:07:01.004Z,7.60
2017-10-10T04:09:27.634Z,7.80
2017-10-10T04:11:54.238Z,8.40
2017-10-10T04:14:20.858Z,7.53
2017-10-10T04:16:47.458Z,8.40
2017-10-10T04:19:14.060Z,8.17
2017-10-10T04:21:40.693Z,8.73
2017-10-10T04:24:07.307Z,8.43
2017-10-10T04:26:33.997Z,7.90
2017-10-10T04:29:00.633Z,7.37
2017-10-10T04:31:27.246Z,6.50
2017-10-10T04:33:53.870Z,7.40
2017-10-10T04:36:20.469Z,7.30
2017-10-10T04:38:47.101Z,7.60
2017-10-10T04:41:13.751Z,7.73
2017-10-10T04:43:40.347Z,8.07
2017-10-10T04:46:06.963Z,6.67
2017-10-10T04:48:33.590Z,7.27
2017-10-10T04:51:00.189Z,6.93
2017-10-10T04:53:26.818Z,6.03
2017-10-10T04:55:53.415Z,6.57
2017-10-10T04:58:20.043Z,6.47
2017-10-10T05:00:46.721Z,6.10
2017-10-10T05:03:13.317Z,6.50
2017-10-10T05:05:39.948Z,6.00
2017-10-10T05:08:06.562Z,6.00
2017-10-10T05:10:33.194Z,5.07
2017-10-10T05:12:59.807Z,5.57
2017-10-10T05:15:26.404Z,6.10
2017-10-10T05:17:53.030Z,5.50
2017-10-10T05:20:19.642Z,5.93
2017-10-10T05:22:46.291Z,6.60
2017-10-10T05:25:12.905Z,5.53
2017-10-10T05:27:39.635Z,5.70
2017-10-10T05:30:06.264Z,5.93
2017-10-10T05:32:32.891Z,5.90
2017-10-10T05:34:59.497Z,5.90
2017-10-10T05:37:26.091Z,5.50
2017-10-10T05:39:52.704Z,5.80
2017-10-10T05:42:19.338Z,6.33
2017-10-10T05:44:45.974Z,6.00
2017-10-10T05:47:12.635Z,6.00
2017-10-10T05:49:40.213Z,5.10
2017-10-10T05:52:07.095Z,5.50
2017-10-10T05:54:33.701Z,5.60
2017-10-10T05:57:00.364Z,6.00
2017-10-10T05:59:26.966Z,5.03
2017-10-10T06:01:53.699Z,5.30
2017-10-10T06:04:20.335Z,4.83
2017-10-10T06:06:46.979Z,4.87
2017-10-10T06:09:13.589Z,5.67
2017-10-10T06:11:40.362Z,6.17
2017-10-10T06:14:07.046Z,5.90
2017-10-10T06:16:33.907Z,4.60
2017-10-10T06:19:00.514Z,5.10
2017-10-10T06:21:27.153Z,5.00
2017-10-10T06:23:53.773Z,5.53
2017-10-10T06:26:20.410Z,5.37
2017-10-10T06:28:47.084Z,4.20
2017-10-10T06:31:14.156Z,4.20
2017-10-10T06:33:40.908Z,4.97
2017-10-10T06:36:07.514Z,4.60
2017-10-10T06:38:34.115Z,4.90
2017-10-10T06:41:00.742Z,4.53
2017-10-10T06:43:27.337Z,4.50
2017-10-10T06:45:54.014Z,4.60
2017-10-10T06:48:20.732Z,4.27
2017-10-10T06:50:47.385Z,3.83
2017-10-10T06:53:14.064Z,4.60
2017-10-10T06:55:40.746Z,4.27
2017-10-10T06:58:07.357Z,4.40
2017-10-10T07:00:33.973Z,4.23
2017-10-10T07:03:00.613Z,4.30
2017-10-10T07:05:27.215Z,3.60
2017-10-10T07:07:53.816Z,3.97
2017-10-10T07:10:20.441Z,3.60
2017-10-10T07:12:47.037Z,4.07
2017-10-10T07:15:13.664Z,4.50
2017-10-10T07:17:40.259Z,3.57
2017-10-10T07:20:06.853Z,3.50
2017-10-10T07:22:33.469Z,3.30
2017-10-10T07:25:00.095Z,4.10
2017-10-10T07:27:26.697Z,3.30
2017-10-10T07:29:53.321Z,3.53
2017-10-10T07:32:19.950Z,3.40
2017-10-10T07:34:46.561Z,3.50
2017-10-10T07:37:13.193Z,3.53
2017-10-10T07:39:39.819Z,4.20
2017-10-10T07:42:06.425Z,3.50
2017-10-10T07:44:33.088Z,3.60
2017-10-10T07:46:59.736Z,3.57
2017-10-10T07:49:26.353Z,3.83
2017-10-10T07:51:53.047Z,3.33
2017-10-10T07:54:19.771Z,4.60
2017-10-10T07:56:46.409Z,3.47
2017-10-10T07:59:13.021Z,3.87
2017-10-10T08:01:39.643Z,4.10
2017-10-10T08:04:06.234Z,3.97
2017-10-10T08:06:32.857Z,3.80
2017-10-10T08:08:59.458Z,3.57
2017-10-10T08:11:26.073Z,4.10
2017-10-10T08:13:52.681Z,4.60
2017-10-10T08:16:19.318Z,4.23
2017-10-10T08:18:51.485Z,4.23
2017-10-10T08:21:18.109Z,3.97
2017-10-10T08:23:44.726Z,4.37
2017-10-10T08:26:11.350Z,4.00
2017-10-10T08:28:37.965Z,4.80
2017-10-10T08:31:04.561Z,4.73
2017-10-10T08:33:31.178Z,4.50
2017-10-10T08:35:57.782Z,4.87
2017-10-10T08:38:24.413Z,4.97
2017-10-10T08:40:51.018Z,5.20
2017-10-10T08:43:17.625Z,5.30
2017-10-10T08:45:44.268Z,4.80
2017-10-10T08:48:10.876Z,5.53
2017-10-10T08:50:37.485Z,4.50
2017-10-10T08:53:04.087Z,5.10
2017-10-10T08:55:32.619Z,5.10
2017-10-10T08:57:59.296Z,4.63
2017-10-10T09:00:25.908Z,5.07
2017-10-10T09:02:52.506Z,4.80
2017-10-10T09:05:19.146Z,4.70
2017-10-10T09:07:45.746Z,4.60
2017-10-10T09:10:12.357Z,4.40
2017-10-10T09:12:38.981Z,4.40
2017-10-10T09:15:05.594Z,4.73
2017-10-10T09:17:32.225Z,4.67
2017-10-10T09:19:58.829Z,5.07
2017-10-10T09:22:25.436Z,4.43
2017-10-10T09:24:52.061Z,4.87
2017-10-10T09:27:18.662Z,4.43
2017-10-10T09:29:45.290Z,4.97
2017-10-10T09:32:11.908Z,5.20
2017-10-10T09:34:38.532Z,4.40
2017-10-10T09:37:05.126Z,4.90
2017-10-10T09:39:31.723Z,3.90
2017-10-10T09:41:58.343Z,4.23
2017-10-10T09:44:24.952Z,5.57
2017-10-10T09:46:51.557Z,4.60
2017-10-10T09:49:18.170Z,4.97
2017-10-10T09:51:44.801Z,5.43
2017-10-10T09:54:11.406Z,4.10
2017-10-10T09:56:37.997Z,4.73
2017-10-10T09:59:04.625Z,4.53
2017-10-10T10:01:31.221Z,4.67
2017-10-10T10:03:57.859Z,4.70
2017-10-10T10:06:24.462Z,4.30
2017-10-10T10:08:51.091Z,5.07
2017-10-10T10:11:17.693Z,4.50
2017-10-10T10:13:44.325Z,4.50
2017-10-10T10:16:10.930Z,4.60
2017-10-10T10:18:37.526Z,4.40
2017-10-10T10:21:04.168Z,4.83
2017-10-10T10:23:30.799Z,4.87
2017-10-10T10:25:57.395Z,5.03
2017-10-10T10:28:24.020Z,5.67
2017-10-10T10:30:50.623Z,5.60
2017-10-10T10:33:17.251Z,5.57
2017-10-10T10:35:43.874Z,5.67
2017-10-10T10:38:10.472Z,6.23
2017-10-10T10:40:37.114Z,6.20
2017-10-10T10:43:03.714Z,6.30
2017-10-10T10:45:30.318Z,5.30
2017-10-10T10:47:56.938Z,6.03
2017-10-10T10:50:23.569Z,6.70
2017-10-10T10:52:50.165Z,6.50
2017-10-10T10:55:16.794Z,7.03
2017-10-10T10:57:43.386Z,5.53
2017-10-10T11:00:10.006Z,5.90
2017-10-10T11:02:36.638Z,6.07
2017-10-10T11:05:03.239Z,5.93
2017-10-10T11:07:29.830Z,6.20
2017-10-10T11:09:56.453Z,5.67
2017-10-10T11:12:23.087Z,6.80
2017-10-10T11:14:49.692Z,6.23
2017-10-10T11:17:16.333Z,5.93
2017-10-10T11:19:43.057Z,5.20
2017-10-10T11:22:10.240Z,6.07
2017-10-10T11:24:37.660Z,5.70
2017-10-10T11:27:04.255Z,6.47
2017-10-10T11:29:30.855Z,6.40
2017-10-10T11:31:57.493Z,6.17
2017-10-10T11:34:24.137Z,7.37
2017-10-10T11:36:50.735Z,6.00
2017-10-10T11:39:17.389Z,5.77
2017-10-10T11:41:44.053Z,5.83
2017-10-10T11:44:10.715Z,5.73
2017-10-10T11:46:37.336Z,5.77
2017-10-10T11:49:04.043Z,6.10
2017-10-10T11:51:31.027Z,6.33
2017-10-10T11:53:57.663Z,5.70
2017-10-10T11:56:24.649Z,5.80
2017-10-10T11:58:51.266Z,5.70
2017-10-10T12:01:17.891Z,5.57
2017-10-10T12:03:44.554Z,5.70
2017-10-10T12:06:11.366Z,5.47
2017-10-10T12:08:38.248Z,5.50
2017-10-10T12:11:04.845Z,5.80
2017-10-10T12:13:31.469Z,5.93
2017-10-10T12:15:58.079Z,5.80
2017-10-10T12:18:24.725Z,6.30
2017-10-10T12:20:51.325Z,6.00
2017-10-10T12:23:17.930Z,6.83
2017-10-10T12:25:44.545Z,5.97
2017-10-10T12:28:11.157Z,5.63
2017-10-10T12:30:37.766Z,6.70
2017-10-10T12:33:04.394Z,6.83
2017-10-10T12:35:30.995Z,6.67
2017-10-10T12:37:57.798Z,6.70
2017-10-10T12:40:24.461Z,6.63
2017-10-10T12:42:51.086Z,6.83
2017-10-10T12:45:17.691Z,6.60
2017-10-10T12:47:44.295Z,6.80
2017-10-10T12:50:10.916Z,7.37
2017-10-10T12:52:37.537Z,7.40
2017-10-10T12:55:04.158Z,7.07
2017-10-10T12:57:30.782Z,7.80
2017-10-10T12:59:57.389Z,7.87
2017-10-10T13:02:24.099Z,6.83
2017-10-10T13:04:50.694Z,5.73
2017-10-10T13:07:17.338Z,6.87
2017-10-10T13:09:44.012Z,5.70
2017-10-10T13:12:10.621Z,6.00
2017-10-10T13:14:37.243Z,6.00
2017-10-10T13:17:03.839Z,6.83
2017-10-10T13:19:30.460Z,5.67
2017-10-10T13:21:57.065Z,5.50
2017-10-10T13:24:23.692Z,5.20
2017-10-10T13:26:50.293Z,6.40
2017-10-10T13:29:16.915Z,6.30
2017-10-10T13:31:43.520Z,5.87
2017-10-10T13:34:10.123Z,6.37
2017-10-10T13:36:36.761Z,5.80
2017-10-10T13:39:03.357Z,5.70
2017-10-10T13:41:29.992Z,5.00
2017-10-10T13:43:56.601Z,5.27
2017-10-10T13:46:23.197Z,5.30
2017-10-10T13:48:49.842Z,5.43
2017-10-10T13:51:16.449Z,5.23
2017-10-10T13:53:43.092Z,5.20
2017-10-10T13:56:09.681Z,5.83
2017-10-10T13:58:36.276Z,5.70
2017-10-10T14:01:02.930Z,6.07
2017-10-10T14:03:29.547Z,5.97
2017-10-10T14:05:56.168Z,5.60
2017-10-10T14:08:22.795Z,6.10
2017-10-10T14:10:49.401Z,5.83
2017-10-10T14:13:16.022Z,5.80
2017-10-10T14:15:42.664Z,6.10
2017-10-10T14:18:09.272Z,5.60
2017-10-10T14:20:35.862Z,5.30
2017-10-10T14:23:02.506Z,6.00
2017-10-10T14:25:29.137Z,5.70
2017-10-10T14:27:55.755Z,5.50
2017-10-10T14:30:22.374Z,4.90
2017-10-10T14:32:49.006Z,5.23
2017-10-10T14:35:15.615Z,5.40
2017-10-10T14:37:42.256Z,5.40
2017-10-10T14:40:08.898Z,4.43
2017-10-10T14:42:35.516Z,4.87
2017-10-10T14:45:02.170Z,4.47
2017-10-10T14:47:28.794Z,4.73
2017-10-10T14:49:55.394Z,5.00
2017-10-10T14:52:22.034Z,4.80
2017-10-10T14:54:48.637Z,4.80
2017-10-10T14:57:15.266Z,4.60
2017-10-10T14:59:41.886Z,5.00
2017-10-10T15:02:08.514Z,5.50
2017-10-10T15:04:35.126Z,5.10
2017-10-10T15:07:01.752Z,5.20
2017-10-10T15:09:28.381Z,4.33
2017-10-10T15:11:55.187Z,4.87
2017-10-10T15:14:21.793Z,4.73
2017-10-10T15:16:48.397Z,4.60
2017-10-10T15:19:15.100Z,4.87
2017-10-10T15:21:41.726Z,4.60
2017-10-10T15:24:08.329Z,4.20
2017-10-10T15:26:34.964Z,4.93
2017-10-10T15:29:01.573Z,5.13
2017-10-10T15:31:28.201Z,4.80
2017-10-10T15:33:54.806Z,4.70
2017-10-10T15:36:21.611Z,4.50
2017-10-10T15:38:48.395Z,4.63
2017-10-10T15:41:15.256Z,4.40
2017-10-10T15:43:41.930Z,4.37
2017-10-10T15:46:08.547Z,4.10
2017-10-10T15:48:35.180Z,4.70
2017-10-10T15:51:01.794Z,4.33
2017-10-10T15:53:28.401Z,4.60
2017-10-10T15:55:55.022Z,4.40
2017-10-10T15:58:21.665Z,4.30
2017-10-10T16:00:48.288Z,4.43
2017-10-10T16:03:14.904Z,4.50
2017-10-10T16:05:41.545Z,4.37
2017-10-10T16:08:08.154Z,4.83
2017-10-10T16:10:34.745Z,4.20
2017-10-10T16:13:01.364Z,4.10
2017-10-10T16:15:27.978Z,5.20
2017-10-10T16:17:54.578Z,5.07
2017-10-10T16:20:21.213Z,4.77
2017-10-10T16:22:47.812Z,4.93
2017-10-10T16:25:14.427Z,4.60
2017-10-10T16:27:41.032Z,5.30
2017-10-10T16:30:07.633Z,5.03
2017-10-10T16:32:34.266Z,5.50
2017-10-10T16:35:00.858Z,6.80
2017-10-10T16:37:27.480Z,5.07
2017-10-10T16:39:54.152Z,5.23
2017-10-10T16:42:20.788Z,4.70
2017-10-10T16:44:47.408Z,5.10
2017-10-10T16:47:14.060Z,5.17
2017-10-10T16:49:40.692Z,4.77
2017-10-10T16:52:07.285Z,5.20
2017-10-10T16:54:33.922Z,5.20
2017-10-10T16:57:00.529Z,5.83
2017-10-10T16:59:27.144Z,5.80
2017-10-10T17:01:53.761Z,5.67
2017-10-10T17:04:20.370Z,5.40
2017-10-10T17:06:46.985Z,5.70
2017-10-10T17:09:13.590Z,5.33
2017-10-10T17:11:40.221Z,5.60
2017-10-10T17:14:06.900Z,5.33
2017-10-10T17:16:34.407Z,5.00
2017-10-10T17:19:01.033Z,5.80
2017-10-10T17:21:27.642Z,5.40
2017-10-10T17:23:54.276Z,6.27
2017-10-10T17:26:20.869Z,5.70
2017-10-10T17:28:47.511Z,4.80
2017-10-10T17:31:14.106Z,5.20
2017-10-10T17:33:40.714Z,5.47
2017-10-10T17:36:07.342Z,5.17
2017-10-10T17:38:33.948Z,5.50
2017-10-10T17:41:00.546Z,5.90
2017-10-10T17:43:27.205Z,5.43
2017-10-10T17:45:53.805Z,5.03
2017-10-10T17:48:20.413Z,5.67
2017-10-10T17:50:47.062Z,5.10
2017-10-10T17:53:13.662Z,5.00
2017-10-10T17:55:40.272Z,5.00
2017-10-10T17:58:06.897Z,5.20
2017-10-10T18:00:33.501Z,4.70
2017-10-10T18:03:00.105Z,4.50
2017-10-10T18:05:26.810Z,5.30
2017-10-10T18:07:53.421Z,4.90
2017-10-10T18:10:20.109Z,5.40
2017-10-10T18:12:46.741Z,4.93
2017-10-10T18:15:13.344Z,5.10
2017-10-10T18:17:40.028Z,4.97
2017-10-10T18:20:06.630Z,4.93
2017-10-10T18:22:33.257Z,5.17
2017-10-10T18:24:59.928Z,5.10
2017-10-10T18:27:26.521Z,5.13
2017-10-10T18:29:53.145Z,5.20
2017-10-10T18:32:19.761Z,4.13
2017-10-10T18:34:46.370Z,4.70
2017-10-10T18:37:12.998Z,4.63
2017-10-10T18:39:39.611Z,5.30
2017-10-10T18:42:06.212Z,5.33
2017-10-10T18:44:32.868Z,4.30
2017-10-10T18:46:59.571Z,4.40
2017-10-10T18:49:26.185Z,5.43
2017-10-10T18:51:52.896Z,4.73
2017-10-10T18:54:19.671Z,4.07
2017-10-10T18:56:46.282Z,4.37
2017-10-10T18:59:12.922Z,4.20
2017-10-10T19:01:39.536Z,4.10
2017-10-10T19:04:06.164Z,3.73
2017-10-10T19:06:32.770Z,3.53
2017-10-10T19:08:59.483Z,3.57
2017-10-10T19:11:26.155Z,3.83
2017-10-10T19:13:52.761Z,3.40
2017-10-10T19:16:19.410Z,3.40
2017-10-10T19:18:46.067Z,3.30
2017-10-10T19:21:12.666Z,3.80
2017-10-10T19:23:39.287Z,3.57
2017-10-10T19:26:05.910Z,4.00
2017-10-10T19:28:32.546Z,3.47
2017-10-10T19:30:59.180Z,3.80
2017-10-10T19:33:25.809Z,3.80
2017-10-10T19:35:52.408Z,3.23
2017-10-10T19:38:19.015Z,3.97
2017-10-10T19:40:45.641Z,3.83
2017-10-10T19:43:12.264Z,4.20
2017-10-10T19:45:38.918Z,4.43
2017-10-10T19:48:05.553Z,4.00
2017-10-10T19:50:32.158Z,3.40
2017-10-10T19:52:58.753Z,4.00
2017-10-10T19:55:25.393Z,3.60
2017-10-10T19:57:52.012Z,3.27
2017-10-10T20:00:18.707Z,3.90
2017-10-10T20:02:45.345Z,3.67
2017-10-10T20:05:11.972Z,3.07
2017-10-10T20:07:38.569Z,3.30
2017-10-10T20:10:05.210Z,4.13
2017-10-10T20:12:31.815Z,3.83
2017-10-10T20:14:58.445Z,3.90
2017-10-10T20:17:25.171Z,3.60
2017-10-10T20:19:51.758Z,3.77
2017-10-10T20:22:18.378Z,3.90
2017-10-10T20:24:45.002Z,4.00
2017-10-10T20:27:11.625Z,4.33
2017-10-10T20:29:38.244Z,3.70
2017-10-10T20:32:04.886Z,3.70
2017-10-10T20:34:31.527Z,3.90
2017-10-10T20:36:58.141Z,4.00
2017-10-10T20:39:24.770Z,4.30
2017-10-10T20:41:51.401Z,4.13
2017-10-10T20:44:17.999Z,4.33
2017-10-10T20:46:44.645Z,4.30
2017-10-10T20:49:11.266Z,4.30
2017-10-10T20:51:37.879Z,3.60
2017-10-10T20:54:04.539Z,4.00
2017-10-10T20:56:31.152Z,4.43
2017-10-10T20:58:59.022Z,4.47
2017-10-10T21:01:25.681Z,4.27
2017-10-10T21:03:52.286Z,4.30
2017-10-10T21:06:18.896Z,3.83
2017-10-10T21:08:45.548Z,3.43
2017-10-10T21:11:12.158Z,4.30
2017-10-10T21:13:38.766Z,4.17
2017-10-10T21:16:05.385Z,4.40
2017-10-10T21:18:32.012Z,3.97
2017-10-10T21:20:58.633Z,4.13
2017-10-10T21:23:25.253Z,4.07
2017-10-10T21:25:51.878Z,3.90
2017-10-10T21:28:18.530Z,4.47
2017-10-10T21:30:45.158Z,3.93
2017-10-10T21:33:11.778Z,4.70
2017-10-10T21:35:38.418Z,4.13
2017-10-10T21:38:05.028Z,4.07
2017-10-10T21:40:31.681Z,4.00
2017-10-10T21:42:58.296Z,4.73
2017-10-10T21:45:24.889Z,4.50
2017-10-10T21:47:51.509Z,4.80
2017-10-10T21:50:18.132Z,4.43
2017-10-10T21:52:44.744Z,5.50
2017-10-10T21:55:11.372Z,4.80
2017-10-10T21:57:37.966Z,4.93
2017-10-10T22:00:04.593Z,4.53
2017-10-10T22:02:31.193Z,5.07
2017-10-10T22:04:57.825Z,5.67
2017-10-10T22:07:24.464Z,5.50
2017-10-10T22:09:51.062Z,4.40
2017-10-10T22:12:17.680Z,4.80
2017-10-10T22:14:44.281Z,4.77
2017-10-10T22:17:10.894Z,4.30
2017-10-10T22:19:37.502Z,5.27
2017-10-10T22:22:04.100Z,4.73
2017-10-10T22:24:30.752Z,4.50
2017-10-10T22:26:58.223Z,5.03
2017-10-10T22:29:27.011Z,4.50
2017-10-10T22:31:53.657Z,4.73
2017-10-10T22:34:20.267Z,5.40
2017-10-10T22:36:46.873Z,4.60
2017-10-10T22:39:13.513Z,5.13
2017-10-10T22:41:40.132Z,5.60
2017-10-10T22:44:06.725Z,5.57
2017-10-10T22:46:33.349Z,5.07
2017-10-10T22:48:59.949Z,5.20
2017-10-10T22:51:26.573Z,5.53
2017-10-10T22:53:53.199Z,5.73
2017-10-10T22:56:19.800Z,6.33
2017-10-10T22:58:46.448Z,6.50
2017-10-10T23:01:13.086Z,7.10
2017-10-10T23:03:39.698Z,6.67
2017-10-10T23:06:06.341Z,6.53
2017-10-10T23:08:32.947Z,7.13
2017-10-10T23:10:59.551Z,7.50
2017-10-10T23:13:26.181Z,7.37
2017-10-10T23:15:52.798Z,7.23
2017-10-10T23:18:19.422Z,8.87
2017-10-10T23:20:46.022Z,8.50
2017-10-10T23:23:12.672Z,8.90
2017-10-10T23:25:39.362Z,9.47
2017-10-10T23:28:05.960Z,9.30
2017-10-10T23:30:32.612Z,9.97
2017-10-10T23:32:59.280Z,10.07
2017-10-10T23:35:25.889Z,10.20
2017-10-10T23:37:52.546Z,9.47
2017-10-10T23:40:19.164Z,9.67
2017-10-10T23:42:45.831Z,9.83
2017-10-10T23:45:12.470Z,10.67
2017-10-10T23:47:39.126Z,9.77
2017-10-10T23:50:05.863Z,9.57
2017-10-10T23:52:32.476Z,9.77
2017-10-10T23:54:59.114Z,10.20
2017-10-10T23:57:25.738Z,10.80
2017-10-10T23:59:52.384Z,10.07
